createdAt,value
2022-12-03T00:01:02.430Z,92.97
2022-12-03T00:02:27.305Z,88.15
2022-12-03T00:03:48.249Z,83.53
2022-12-03T00:05:11.406Z,79.65
2022-12-03T00:06:44.761Z,78.68
2022-12-03T00:08:16.715Z,84.43
2022-12-03T00:09:38.366Z,79.65
2022-12-03T00:11:00.351Z,79.20
2022-12-03T00:12:31.522Z,80.35
2022-12-03T00:13:53.713Z,90.47
2022-12-03T00:15:16.357Z,81.60
2022-12-03T00:16:37.279Z,78.32
2022-12-03T00:17:59.332Z,81.40
2022-12-03T00:19:21.469Z,81.07
2022-12-03T00:20:43.364Z,82.75
2022-12-03T00:22:05.862Z,86.38
2022-12-03T00:23:28.115Z,90.20
2022-12-03T00:26:10.838Z,80.72
2022-12-03T00:27:33.132Z,77.95
2022-12-03T00:28:56.192Z,83.50
2022-12-03T00:30:19.894Z,78.88
2022-12-03T00:31:43.359Z,80.70
2022-12-03T00:33:07.680Z,82.82
2022-12-03T00:34:29.809Z,82.18
2022-12-03T00:37:14.364Z,91.05
2022-12-03T00:38:36.878Z,89.57
2022-12-03T00:39:59.292Z,89.50
2022-12-03T00:41:20.219Z,88.63
2022-12-03T00:42:48.517Z,85.97
2022-12-03T00:44:14.706Z,85.35
2022-12-03T00:45:48.171Z,84.82
2022-12-03T00:47:14.749Z,90.97
2022-12-03T00:48:37.750Z,90.80
2022-12-03T00:50:03.426Z,89.60
2022-12-03T00:51:27.311Z,81.90
2022-12-03T00:52:59.540Z,85.57
2022-12-03T00:55:48.598Z,85.70
2022-12-03T00:57:09.633Z,85.45
2022-12-03T00:58:33.819Z,93.50
2022-12-03T00:59:57.782Z,91.53
2022-12-03T01:01:34.744Z,84.07
2022-12-03T01:03:02.481Z,78.00
2022-12-03T01:04:24.498Z,93.72
2022-12-03T01:05:49.612Z,83.07
2022-12-03T01:07:18.359Z,85.05
2022-12-03T01:08:43.592Z,87.07
2022-12-03T01:10:07.015Z,91.43
2022-12-03T01:11:42.353Z,76.63
2022-12-03T01:13:07.692Z,86.70
2022-12-03T01:14:31.605Z,84.15
2022-12-03T01:15:53.691Z,86.53
2022-12-03T01:17:18.974Z,87.38
2022-12-03T01:18:40.771Z,82.55
2022-12-03T01:20:04.695Z,89.22
2022-12-03T01:21:26.943Z,84.18
2022-12-03T01:22:49.099Z,86.32
2022-12-03T01:25:35.986Z,84.53
2022-12-03T01:27:00.681Z,81.70
2022-12-03T01:28:21.421Z,84.60
2022-12-03T01:29:43.700Z,85.50
2022-12-03T01:31:23.487Z,80.93
2022-12-03T01:32:47.489Z,79.50
2022-12-03T01:34:14.128Z,82.80
2022-12-03T01:35:36.406Z,84.15
2022-12-03T01:38:21.266Z,82.57
2022-12-03T01:39:45.433Z,86.97
2022-12-03T01:41:12.060Z,84.70
2022-12-03T01:42:44.571Z,86.53
2022-12-03T01:44:16.487Z,80.05
2022-12-03T01:45:38.995Z,91.53
2022-12-03T01:47:02.882Z,87.63
2022-12-03T01:48:25.576Z,80.97
2022-12-03T01:49:51.423Z,97.03
2022-12-03T01:51:14.031Z,85.55
2022-12-03T01:52:40.605Z,83.63
2022-12-03T01:54:05.030Z,87.13
2022-12-03T01:55:29.352Z,88.97
2022-12-03T01:56:51.027Z,88.85
2022-12-03T01:58:15.554Z,88.43
2022-12-03T02:01:28.051Z,92.88
2022-12-03T02:02:53.061Z,95.72
2022-12-03T02:04:25.689Z,91.85
2022-12-03T02:05:49.293Z,91.05
2022-12-03T02:07:28.834Z,93.20
2022-12-03T02:08:50.381Z,93.65
2022-12-03T02:10:25.354Z,86.35
2022-12-03T02:11:55.356Z,86.90
2022-12-03T02:13:24.409Z,88.90
2022-12-03T02:14:47.720Z,89.80
2022-12-03T02:16:16.022Z,91.10
2022-12-03T02:17:39.508Z,87.85
2022-12-03T02:19:00.759Z,97.55
2022-12-03T02:20:26.504Z,96.57
2022-12-03T02:21:57.645Z,90.18
2022-12-03T02:23:31.438Z,89.85
2022-12-03T02:25:00.565Z,90.88
2022-12-03T02:26:25.579Z,93.93
2022-12-03T02:27:49.211Z,87.38
2022-12-03T02:29:10.455Z,87.53
2022-12-03T02:30:33.034Z,87.63
2022-12-03T02:31:54.214Z,91.13
2022-12-03T02:33:16.722Z,71.40
2022-12-03T02:34:52.351Z,88.95
2022-12-03T02:36:15.618Z,79.90
2022-12-03T02:37:37.929Z,91.53
2022-12-03T02:39:01.446Z,81.53
2022-12-03T02:40:27.446Z,83.55
2022-12-03T02:42:08.125Z,89.90
2022-12-03T02:43:30.410Z,91.85
2022-12-03T02:44:52.403Z,88.43
2022-12-03T02:46:14.573Z,91.97
2022-12-03T02:47:40.863Z,90.00
2022-12-03T02:49:03.706Z,84.53
2022-12-03T02:50:30.385Z,92.82
2022-12-03T02:51:51.285Z,90.95
2022-12-03T02:53:16.580Z,86.22
2022-12-03T02:54:37.943Z,90.93
2022-12-03T02:56:04.681Z,82.97
2022-12-03T02:57:27.348Z,95.38
2022-12-03T02:58:53.170Z,89.22
2022-12-03T03:00:20.024Z,89.80
2022-12-03T03:01:45.137Z,88.15
2022-12-03T03:03:09.891Z,85.57
2022-12-03T03:04:36.086Z,84.28
2022-12-03T03:06:03.728Z,90.35
2022-12-03T03:07:31.996Z,80.55
2022-12-03T03:08:54.524Z,81.53
2022-12-03T03:10:19.472Z,86.40
2022-12-03T03:11:43.139Z,91.88
2022-12-03T03:13:11.371Z,85.88
2022-12-03T03:14:34.769Z,87.47
2022-12-03T03:15:57.589Z,88.97
2022-12-03T03:17:20.253Z,89.97
2022-12-03T03:18:41.759Z,87.05
2022-12-03T03:20:04.728Z,87.00
2022-12-03T03:21:26.042Z,87.18
2022-12-03T03:22:48.644Z,76.10
2022-12-03T03:24:10.709Z,81.50
2022-12-03T03:25:35.471Z,86.63
2022-12-03T03:26:57.705Z,87.20
2022-12-03T03:28:20.355Z,83.38
2022-12-03T03:29:42.532Z,72.45
2022-12-03T03:31:05.549Z,86.97
2022-12-03T03:32:29.407Z,82.38
2022-12-03T03:33:52.246Z,82.10
2022-12-03T03:35:14.908Z,79.60
2022-12-03T03:36:37.470Z,84.50
2022-12-03T03:37:59.212Z,84.45
2022-12-03T03:39:23.847Z,78.10
2022-12-03T03:40:45.964Z,83.85
2022-12-03T03:43:36.987Z,83.32
2022-12-03T03:45:01.094Z,85.57
2022-12-03T03:46:42.891Z,92.15
2022-12-03T03:48:05.320Z,79.30
2022-12-03T03:49:27.486Z,86.47
2022-12-03T03:50:50.701Z,76.60
2022-12-03T03:52:13.565Z,80.45
2022-12-03T03:53:34.964Z,84.47
2022-12-03T03:54:56.892Z,73.75
2022-12-03T03:56:20.736Z,84.25
2022-12-03T03:57:42.796Z,90.10
2022-12-03T03:59:06.758Z,86.85
2022-12-03T04:00:28.107Z,80.38
2022-12-03T04:01:50.408Z,87.07
2022-12-03T04:03:11.791Z,78.25
2022-12-03T04:04:37.955Z,79.32
2022-12-03T04:06:00.089Z,78.65
2022-12-03T04:07:25.705Z,72.88
2022-12-03T04:08:47.915Z,77.28
2022-12-03T04:10:39.831Z,77.43
2022-12-03T04:12:19.801Z,80.47
2022-12-03T04:13:41.138Z,81.75
2022-12-03T04:15:05.544Z,84.00
2022-12-03T04:16:28.002Z,77.43
2022-12-03T04:18:09.569Z,82.75
2022-12-03T04:19:32.095Z,84.82
2022-12-03T04:21:14.101Z,80.25
2022-12-03T04:22:41.294Z,88.32
2022-12-03T04:24:04.109Z,76.63
2022-12-03T04:25:46.892Z,81.95
2022-12-03T04:27:27.191Z,80.90
2022-12-03T04:28:51.072Z,79.00
2022-12-03T04:30:14.749Z,80.00
2022-12-03T04:31:54.305Z,88.72
2022-12-03T04:33:33.753Z,91.07
2022-12-03T04:35:13.870Z,90.32
2022-12-03T04:36:36.663Z,81.35
2022-12-03T04:37:58.606Z,89.18
2022-12-03T04:39:19.850Z,76.82
2022-12-03T04:40:59.370Z,84.53
2022-12-03T04:42:21.488Z,85.28
2022-12-03T04:43:57.419Z,88.57
2022-12-03T04:45:21.076Z,85.93
2022-12-03T04:46:44.982Z,82.90
2022-12-03T04:48:07.967Z,83.10
2022-12-03T04:49:33.489Z,93.30
2022-12-03T04:50:55.478Z,82.57
2022-12-03T04:52:18.358Z,89.20
2022-12-03T04:53:45.899Z,76.28
2022-12-03T04:55:08.641Z,80.60
2022-12-03T04:56:29.689Z,96.10
2022-12-03T04:57:51.727Z,84.95
2022-12-03T04:59:16.352Z,86.22
2022-12-03T05:00:40.417Z,84.88
2022-12-03T05:02:01.221Z,85.15
2022-12-03T05:03:23.039Z,88.88
2022-12-03T05:04:44.087Z,89.70
2022-12-03T05:06:06.065Z,82.70
2022-12-03T05:08:52.392Z,81.25
2022-12-03T05:10:14.823Z,87.95
2022-12-03T05:11:35.902Z,85.78
2022-12-03T05:12:58.080Z,75.25
2022-12-03T05:14:20.477Z,85.03
2022-12-03T05:15:42.669Z,87.20
2022-12-03T05:17:04.953Z,82.65
2022-12-03T05:18:25.995Z,84.72
2022-12-03T05:20:05.102Z,90.65
2022-12-03T05:21:27.228Z,90.93
2022-12-03T05:22:48.347Z,87.50
2022-12-03T05:24:10.273Z,84.03
2022-12-03T05:26:53.087Z,91.85
2022-12-03T05:28:14.492Z,86.50
2022-12-03T05:29:37.030Z,85.22
2022-12-03T05:31:03.589Z,81.75
2022-12-03T05:32:25.675Z,87.15
2022-12-03T05:33:47.807Z,86.82
2022-12-03T05:35:10.739Z,86.55
2022-12-03T05:36:32.521Z,92.63
2022-12-03T05:37:54.089Z,88.60
2022-12-03T05:39:16.279Z,88.80
2022-12-03T05:40:37.472Z,90.32
2022-12-03T05:42:17.191Z,92.15
2022-12-03T05:43:39.085Z,88.28
2022-12-03T05:45:00.248Z,90.55
2022-12-03T05:46:23.668Z,88.55
2022-12-03T05:47:45.171Z,94.18
2022-12-03T05:49:07.440Z,88.05
2022-12-03T05:50:30.772Z,92.20
2022-12-03T05:51:58.237Z,86.53
2022-12-03T05:53:21.388Z,87.75
2022-12-03T05:54:43.404Z,94.43
2022-12-03T05:56:05.935Z,82.82
2022-12-03T05:57:29.407Z,90.07
2022-12-03T05:58:51.715Z,94.00
2022-12-03T06:02:59.579Z,89.80
2022-12-03T06:04:21.826Z,88.60
2022-12-03T06:05:43.987Z,90.03
2022-12-03T06:07:12.517Z,91.03
2022-12-03T06:08:36.057Z,85.88
2022-12-03T06:09:57.370Z,86.95
2022-12-03T06:11:19.167Z,91.43
2022-12-03T06:12:50.573Z,89.78
2022-12-03T06:14:12.729Z,95.53
2022-12-03T06:15:42.124Z,86.63
2022-12-03T06:17:07.205Z,86.65
2022-12-03T06:18:32.387Z,81.18
2022-12-03T06:19:54.560Z,90.88
2022-12-03T06:21:16.766Z,96.00
2022-12-03T06:22:40.436Z,86.82
2022-12-03T06:24:03.139Z,87.15
2022-12-03T06:25:25.012Z,97.95
2022-12-03T06:26:47.341Z,96.65
2022-12-03T06:28:09.806Z,90.45
2022-12-03T06:29:31.212Z,89.68
2022-12-03T06:30:53.471Z,92.10
2022-12-03T06:32:17.051Z,85.25
2022-12-03T06:33:38.289Z,88.63
2022-12-03T06:35:02.936Z,85.55
2022-12-03T06:36:26.247Z,91.60
2022-12-03T06:37:48.701Z,84.78
2022-12-03T06:39:17.003Z,91.68
2022-12-03T06:40:42.852Z,90.03
2022-12-03T06:42:06.623Z,93.90
2022-12-03T06:43:29.029Z,86.63
2022-12-03T06:44:50.894Z,85.32
2022-12-03T06:46:17.617Z,92.82
2022-12-03T06:47:41.800Z,91.70
2022-12-03T06:49:03.339Z,90.85
2022-12-03T06:50:25.841Z,85.25
2022-12-03T06:51:47.192Z,88.10
2022-12-03T06:54:37.954Z,93.25
2022-12-03T06:56:03.359Z,85.93
2022-12-03T06:57:25.327Z,97.13
2022-12-03T06:58:47.633Z,82.88
2022-12-03T07:00:11.293Z,86.28
2022-12-03T07:01:32.917Z,91.32
2022-12-03T07:02:56.796Z,65.78
2022-12-03T07:04:17.873Z,83.95
2022-12-03T07:05:43.960Z,88.10
2022-12-03T07:07:09.929Z,93.18
2022-12-03T07:08:41.125Z,90.55
2022-12-03T07:10:03.472Z,90.82
2022-12-03T07:11:39.828Z,90.30
2022-12-03T07:13:02.435Z,82.03
2022-12-03T07:14:25.059Z,92.68
2022-12-03T07:15:47.116Z,87.35
2022-12-03T07:18:34.117Z,88.70
2022-12-03T07:19:56.241Z,91.53
2022-12-03T07:21:17.682Z,90.63
2022-12-03T07:22:40.776Z,92.15
2022-12-03T07:24:02.969Z,92.85
2022-12-03T07:25:25.239Z,94.72
2022-12-03T07:26:49.859Z,92.40
2022-12-03T07:28:14.191Z,94.20
2022-12-03T07:29:36.731Z,89.72
2022-12-03T07:31:01.830Z,92.18
2022-12-03T07:32:24.462Z,93.57
2022-12-03T07:33:51.535Z,88.15
2022-12-03T07:35:13.727Z,86.13
2022-12-03T07:36:35.777Z,98.07
2022-12-03T07:37:58.090Z,92.38
2022-12-03T07:39:22.335Z,90.18
2022-12-03T07:40:43.176Z,97.03
2022-12-03T07:42:09.357Z,89.65
2022-12-03T07:43:35.072Z,91.07
2022-12-03T07:45:01.985Z,81.18
2022-12-03T07:46:24.486Z,91.22
2022-12-03T07:47:46.953Z,86.32
2022-12-03T07:49:12.345Z,88.93
2022-12-03T07:50:33.410Z,101.10
2022-12-03T07:51:57.102Z,79.23
2022-12-03T07:53:18.403Z,100.90
2022-12-03T07:54:40.699Z,95.63
2022-12-03T07:56:05.108Z,87.68
2022-12-03T07:57:27.380Z,94.88
2022-12-03T07:58:52.967Z,94.90
2022-12-03T08:00:16.614Z,88.75
2022-12-03T08:01:38.863Z,94.40
2022-12-03T08:02:59.999Z,89.15
2022-12-03T08:04:23.650Z,88.97
2022-12-03T08:05:45.596Z,93.50
2022-12-03T08:07:07.738Z,84.53
2022-12-03T08:08:29.064Z,91.82
2022-12-03T08:09:51.766Z,91.28
2022-12-03T08:11:18.391Z,92.53
2022-12-03T08:12:42.352Z,89.30
2022-12-03T08:14:09.441Z,96.25
2022-12-03T08:15:38.481Z,88.63
2022-12-03T08:17:02.350Z,99.05
2022-12-03T08:18:24.532Z,88.47
2022-12-03T08:19:49.030Z,87.82
2022-12-03T08:21:13.145Z,90.43
2022-12-03T08:22:35.023Z,93.88
2022-12-03T08:23:57.990Z,95.82
2022-12-03T08:25:27.199Z,90.57
2022-12-03T08:26:50.185Z,94.68
2022-12-03T08:28:20.360Z,105.03
2022-12-03T08:29:45.298Z,86.05
2022-12-03T08:31:18.753Z,87.65
2022-12-03T08:32:41.336Z,95.20
2022-12-03T08:35:39.654Z,84.10
2022-12-03T08:39:19.588Z,89.95
2022-12-03T08:41:00.453Z,87.90
2022-12-03T08:42:51.353Z,89.60
2022-12-03T08:44:27.145Z,85.82
2022-12-03T08:45:50.025Z,87.05
2022-12-03T08:47:17.639Z,91.72
2022-12-03T08:48:44.043Z,88.60
2022-12-03T08:50:29.208Z,87.55
2022-12-03T08:51:57.978Z,81.47
2022-12-03T08:53:31.629Z,84.22
2022-12-03T08:54:57.471Z,87.07
2022-12-03T08:56:25.589Z,85.85
2022-12-03T08:57:47.817Z,87.28
2022-12-03T08:59:25.131Z,86.97
2022-12-03T09:00:47.430Z,91.82
2022-12-03T09:02:20.104Z,84.45
2022-12-03T09:03:54.356Z,87.63
2022-12-03T09:05:26.774Z,86.30
2022-12-03T09:07:12.265Z,91.30
2022-12-03T09:08:40.903Z,92.75
2022-12-03T09:10:02.821Z,95.90
2022-12-03T09:11:25.289Z,88.53
2022-12-03T09:12:47.419Z,94.65
2022-12-03T09:14:13.699Z,85.35
2022-12-03T09:15:41.993Z,96.95
2022-12-03T09:17:09.242Z,92.65
2022-12-03T09:18:32.439Z,92.65
2022-12-03T09:20:01.448Z,94.15
2022-12-03T09:21:25.027Z,95.45
2022-12-03T09:22:50.862Z,93.90
2022-12-03T09:24:13.854Z,96.53
2022-12-03T09:25:35.920Z,86.93
2022-12-03T09:26:57.961Z,91.40
2022-12-03T09:28:22.699Z,87.90
2022-12-03T09:29:47.907Z,96.97
2022-12-03T09:31:10.533Z,95.53
2022-12-03T09:32:32.901Z,90.28
2022-12-03T09:33:55.299Z,91.63
2022-12-03T09:35:23.288Z,91.68
2022-12-03T09:36:45.543Z,86.78
2022-12-03T09:38:11.169Z,93.97
2022-12-03T09:39:38.277Z,100.10
2022-12-03T09:41:03.294Z,99.93
2022-12-03T09:42:36.603Z,97.65
2022-12-03T09:44:08.591Z,94.47
2022-12-03T09:45:37.009Z,101.90
2022-12-03T09:47:03.832Z,105.07
2022-12-03T09:48:26.242Z,107.35
2022-12-03T09:49:51.533Z,102.15
2022-12-03T09:51:17.101Z,102.68
2022-12-03T09:52:39.074Z,110.32
2022-12-03T09:54:04.419Z,99.28
2022-12-03T09:55:29.229Z,93.63
2022-12-03T09:56:54.480Z,97.93
2022-12-03T09:58:18.480Z,97.32
2022-12-03T09:59:41.067Z,104.32
2022-12-03T10:01:03.623Z,104.45
2022-12-03T10:02:30.420Z,105.50
2022-12-03T10:03:53.545Z,107.97
2022-12-03T10:05:16.693Z,98.45
2022-12-03T10:06:45.288Z,97.65
2022-12-03T10:08:10.411Z,96.03
2022-12-03T10:09:34.457Z,102.82
2022-12-03T10:11:00.440Z,91.75
2022-12-03T10:12:26.282Z,102.55
2022-12-03T10:13:50.606Z,120.35
2022-12-03T10:15:17.935Z,135.25
2022-12-03T10:16:41.154Z,106.75
2022-12-03T10:18:14.631Z,109.68
2022-12-03T10:19:39.765Z,108.82
2022-12-03T10:21:02.217Z,100.72
2022-12-03T10:22:25.323Z,108.22
2022-12-03T10:23:55.247Z,166.57
2022-12-03T10:25:20.951Z,154.18
2022-12-03T10:26:43.680Z,125.32
2022-12-03T10:28:08.549Z,116.55
2022-12-03T10:29:34.362Z,118.97
2022-12-03T10:30:56.765Z,116.63
2022-12-03T10:32:18.993Z,104.63
2022-12-03T10:33:44.922Z,119.43
2022-12-03T10:35:12.238Z,127.35
2022-12-03T10:36:36.603Z,114.97
2022-12-03T10:38:01.316Z,109.97
2022-12-03T10:39:24.942Z,115.18
2022-12-03T10:40:50.936Z,118.03
2022-12-03T10:42:17.042Z,118.70
2022-12-03T10:43:41.551Z,117.82
2022-12-03T10:45:24.531Z,108.70
2022-12-03T10:46:47.900Z,114.63
2022-12-03T10:48:14.988Z,106.43
2022-12-03T10:49:37.594Z,112.60
2022-12-03T10:51:05.452Z,110.80
2022-12-03T10:52:27.679Z,109.80
2022-12-03T10:53:50.967Z,110.65
2022-12-03T10:55:14.623Z,107.70
2022-12-03T10:56:38.189Z,97.50
2022-12-03T10:58:06.101Z,106.57
2022-12-03T10:59:32.553Z,117.45
2022-12-03T11:00:57.821Z,111.85
2022-12-03T11:02:24.004Z,113.97
2022-12-03T11:03:47.067Z,100.50
2022-12-03T11:05:14.229Z,105.63
2022-12-03T11:06:36.311Z,111.75
2022-12-03T11:07:58.568Z,109.25
2022-12-03T11:09:23.251Z,111.25
2022-12-03T11:10:45.739Z,124.72
2022-12-03T11:12:18.938Z,114.72
2022-12-03T11:13:47.815Z,103.90
2022-12-03T11:15:16.808Z,95.82
2022-12-03T11:17:09.185Z,100.18
2022-12-03T11:19:00.401Z,95.25
2022-12-03T11:21:06.974Z,99.05
2022-12-03T11:22:44.812Z,103.90
2022-12-03T11:24:21.185Z,104.55
2022-12-03T11:25:55.219Z,115.57
2022-12-03T11:28:13.656Z,100.85
2022-12-03T11:31:08.301Z,102.07
2022-12-03T11:35:45.610Z,107.97
2022-12-03T11:37:41.752Z,109.30
2022-12-03T11:39:08.284Z,103.90
2022-12-03T11:40:32.460Z,105.20
2022-12-03T11:42:41.769Z,98.85
2022-12-03T11:44:32.926Z,89.25
2022-12-03T11:46:04.218Z,103.82
2022-12-03T11:47:28.892Z,103.43
2022-12-03T11:49:06.768Z,108.55
2022-12-03T11:50:40.053Z,113.25
2022-12-03T11:52:08.824Z,100.32
2022-12-03T11:53:34.508Z,92.38
2022-12-03T11:55:21.963Z,101.15
2022-12-03T11:56:47.984Z,102.32
2022-12-03T11:58:18.711Z,95.55
2022-12-03T12:00:05.194Z,98.88
2022-12-03T12:01:43.680Z,98.88
2022-12-03T12:03:28.461Z,102.00
2022-12-03T12:04:52.101Z,100.25
2022-12-03T12:06:21.930Z,97.47
2022-12-03T12:07:51.523Z,96.95
2022-12-03T12:09:17.033Z,103.55
2022-12-03T12:10:41.147Z,99.07
2022-12-03T12:12:32.968Z,97.40
2022-12-03T12:13:57.177Z,98.38
2022-12-03T12:15:43.185Z,99.85
2022-12-03T12:17:33.758Z,109.75
2022-12-03T12:18:56.410Z,108.10
2022-12-03T12:20:27.329Z,97.28
2022-12-03T12:21:51.912Z,112.45
2022-12-03T12:23:28.179Z,117.28
2022-12-03T12:24:51.868Z,116.80
2022-12-03T12:26:16.264Z,122.07
2022-12-03T12:27:45.291Z,121.80
2022-12-03T12:29:07.435Z,142.27
2022-12-03T12:30:29.654Z,147.98
2022-12-03T12:33:23.398Z,113.40
2022-12-03T12:34:50.571Z,108.05
2022-12-03T12:36:13.121Z,111.38
2022-12-03T12:37:47.041Z,106.30
2022-12-03T12:39:11.745Z,107.22
2022-12-03T12:40:35.656Z,100.78
2022-12-03T12:41:57.414Z,110.30
2022-12-03T12:43:27.036Z,104.90
2022-12-03T12:44:50.384Z,102.03
2022-12-03T12:48:04.429Z,105.35
2022-12-03T12:49:29.363Z,104.05
2022-12-03T12:50:54.848Z,105.28
2022-12-03T12:52:16.741Z,108.95
2022-12-03T12:53:43.104Z,106.78
2022-12-03T12:55:09.646Z,113.60
2022-12-03T12:56:33.249Z,97.35
2022-12-03T12:57:57.786Z,100.32
2022-12-03T12:59:22.329Z,99.63
2022-12-03T13:00:48.034Z,106.38
2022-12-03T13:02:44.526Z,108.13
2022-12-03T13:04:12.737Z,101.35
2022-12-03T13:05:47.230Z,108.57
2022-12-03T13:07:10.541Z,105.75
2022-12-03T13:08:35.663Z,107.20
2022-12-03T13:09:58.463Z,106.03
2022-12-03T13:11:35.613Z,110.35
2022-12-03T13:12:56.376Z,113.43
2022-12-03T13:14:23.250Z,98.00
2022-12-03T13:15:49.768Z,102.82
2022-12-03T13:17:20.072Z,109.25
2022-12-03T13:18:46.456Z,103.90
2022-12-03T13:20:17.507Z,103.35
2022-12-03T13:21:44.196Z,97.40
2022-12-03T13:23:26.303Z,101.70
2022-12-03T13:24:51.680Z,101.43
2022-12-03T13:26:36.130Z,104.05
2022-12-03T13:28:04.335Z,96.47
2022-12-03T13:29:28.645Z,105.60
2022-12-03T13:30:51.407Z,104.00
2022-12-03T13:32:18.262Z,112.85
2022-12-03T13:33:39.984Z,107.53
2022-12-03T13:35:20.893Z,106.10
2022-12-03T13:36:55.386Z,97.22
2022-12-03T13:38:25.359Z,98.85
2022-12-03T13:39:52.210Z,104.47
2022-12-03T13:41:31.431Z,101.47
2022-12-03T13:42:55.309Z,104.72
2022-12-03T13:44:21.217Z,89.82
2022-12-03T13:45:46.200Z,100.15
2022-12-03T13:47:15.321Z,104.05
2022-12-03T13:48:37.052Z,113.63
2022-12-03T13:50:05.615Z,102.30
2022-12-03T13:51:31.349Z,102.82
2022-12-03T13:52:54.807Z,104.85
2022-12-03T13:54:22.814Z,99.10
2022-12-03T13:55:46.912Z,99.63
2022-12-03T13:57:09.230Z,105.22
2022-12-03T13:58:31.477Z,106.43
2022-12-03T13:59:54.295Z,112.30
2022-12-03T14:01:16.294Z,105.07
2022-12-03T14:02:39.174Z,102.43
2022-12-03T14:04:01.204Z,102.47
2022-12-03T14:05:23.192Z,106.50
2022-12-03T14:06:45.376Z,106.72
2022-12-03T14:08:09.692Z,105.35
2022-12-03T14:09:34.564Z,114.93
2022-12-03T14:11:05.949Z,112.18
2022-12-03T14:12:29.153Z,108.67
2022-12-03T14:14:09.878Z,108.88
2022-12-03T14:15:53.323Z,103.47
2022-12-03T14:17:17.110Z,108.85
2022-12-03T14:18:40.519Z,101.90
2022-12-03T14:20:08.465Z,101.40
2022-12-03T14:21:34.906Z,99.18
2022-12-03T14:22:59.443Z,102.03
2022-12-03T14:24:23.085Z,106.97
2022-12-03T14:25:45.224Z,101.45
2022-12-03T14:27:10.559Z,101.10
2022-12-03T14:28:36.535Z,107.95
2022-12-03T14:30:01.275Z,102.85
2022-12-03T14:31:23.457Z,99.63
2022-12-03T14:32:55.211Z,105.50
2022-12-03T14:34:17.275Z,102.03
2022-12-03T14:37:21.282Z,107.80
2022-12-03T14:38:58.164Z,101.05
2022-12-03T14:40:34.449Z,94.70
2022-12-03T14:42:15.855Z,102.25
2022-12-03T14:43:37.955Z,107.38
2022-12-03T14:45:00.028Z,102.38
2022-12-03T14:46:21.180Z,104.07
2022-12-03T14:47:42.938Z,104.15
2022-12-03T14:50:25.867Z,105.35
2022-12-03T14:51:46.850Z,97.97
2022-12-03T14:53:08.811Z,101.63
2022-12-03T14:54:30.863Z,104.82
2022-12-03T14:55:55.929Z,98.30
2022-12-03T14:57:18.137Z,103.07
2022-12-03T15:00:00.924Z,111.03
2022-12-03T15:01:23.695Z,100.00
2022-12-03T15:02:45.158Z,105.35
2022-12-03T15:04:09.889Z,96.97
2022-12-03T15:05:32.157Z,109.18
2022-12-03T15:06:54.381Z,100.70
2022-12-03T15:08:16.558Z,100.70
2022-12-03T15:09:42.556Z,101.68
2022-12-03T15:11:07.702Z,102.65
2022-12-03T15:12:29.593Z,106.32
2022-12-03T15:15:13.433Z,101.97
2022-12-03T15:16:41.601Z,102.72
2022-12-03T15:18:03.817Z,99.70
2022-12-03T15:19:26.381Z,96.20
2022-12-03T15:20:47.443Z,99.85
2022-12-03T15:22:09.184Z,92.78
2022-12-03T15:23:38.335Z,102.45
2022-12-03T15:25:03.717Z,97.75
2022-12-03T15:26:31.410Z,94.18
2022-12-03T15:27:53.896Z,97.72
2022-12-03T15:29:15.860Z,97.65
2022-12-03T15:30:38.106Z,92.28
2022-12-03T15:32:01.347Z,98.85
2022-12-03T15:33:26.287Z,96.32
2022-12-03T15:34:52.284Z,93.72
2022-12-03T15:36:15.287Z,96.90
2022-12-03T15:37:45.880Z,96.07
2022-12-03T15:39:08.127Z,99.78
2022-12-03T15:40:30.362Z,110.45
2022-12-03T15:42:03.404Z,94.63
2022-12-03T15:43:28.841Z,108.22
2022-12-03T15:44:51.316Z,103.07
2022-12-03T15:46:38.583Z,105.78
2022-12-03T15:48:01.510Z,95.10
2022-12-03T15:49:24.287Z,95.95
2022-12-03T15:50:52.025Z,97.90
2022-12-03T15:52:14.246Z,99.07
2022-12-03T15:53:36.587Z,101.85
2022-12-03T15:56:20.672Z,107.47
2022-12-03T15:57:44.868Z,102.45
2022-12-03T15:59:06.639Z,103.45
2022-12-03T16:00:28.960Z,98.68
2022-12-03T16:01:55.704Z,97.95
2022-12-03T16:03:20.825Z,98.40
2022-12-03T16:04:42.871Z,99.15
2022-12-03T16:06:12.828Z,103.55
2022-12-03T16:07:35.695Z,103.10
2022-12-03T16:09:00.699Z,103.57
2022-12-03T16:10:24.809Z,101.68
2022-12-03T16:11:50.022Z,108.03
2022-12-03T16:13:13.384Z,100.75
2022-12-03T16:14:40.378Z,91.47
2022-12-03T16:16:02.740Z,106.78
2022-12-03T16:17:29.006Z,111.05
2022-12-03T16:18:51.434Z,112.30
2022-12-03T16:20:21.814Z,105.20
2022-12-03T16:21:44.632Z,105.55
2022-12-03T16:23:07.548Z,109.78
2022-12-03T16:24:38.598Z,112.07
2022-12-03T16:26:00.634Z,104.53
2022-12-03T16:27:25.848Z,113.38
2022-12-03T16:28:56.023Z,115.57
2022-12-03T16:30:40.141Z,105.30
2022-12-03T16:32:10.573Z,114.90
2022-12-03T16:33:42.360Z,102.25
2022-12-03T16:35:13.966Z,114.93
2022-12-03T16:36:36.176Z,111.82
2022-12-03T16:38:01.100Z,111.32
2022-12-03T16:39:26.544Z,107.70
2022-12-03T16:40:48.758Z,109.65
2022-12-03T16:42:29.608Z,106.40
2022-12-03T16:44:05.562Z,117.80
2022-12-03T16:46:02.531Z,116.53
2022-12-03T16:50:29.507Z,113.88
2022-12-03T16:51:54.204Z,113.47
2022-12-03T16:53:16.511Z,108.60
2022-12-03T16:56:04.743Z,114.05
2022-12-03T16:57:37.430Z,115.60
2022-12-03T16:59:00.925Z,122.20
2022-12-03T17:00:22.360Z,113.53
2022-12-03T17:01:44.620Z,117.53
2022-12-03T17:04:30.973Z,117.15
2022-12-03T17:07:14.583Z,127.72
2022-12-03T17:08:36.860Z,123.07
2022-12-03T17:09:58.152Z,130.32
2022-12-03T17:11:20.442Z,115.05
2022-12-03T17:13:08.250Z,126.05
2022-12-03T17:14:32.849Z,122.10
2022-12-03T17:15:55.616Z,123.47
2022-12-03T17:17:17.938Z,120.20
2022-12-03T17:18:40.496Z,122.47
2022-12-03T17:20:03.197Z,121.03
2022-12-03T17:21:25.433Z,135.63
2022-12-03T17:22:47.720Z,127.40
2022-12-03T17:24:10.278Z,130.50
2022-12-03T17:25:32.627Z,126.40
2022-12-03T17:26:54.458Z,123.53
2022-12-03T17:28:16.918Z,129.80
2022-12-03T17:29:40.734Z,126.85
2022-12-03T17:31:03.027Z,124.30
2022-12-03T17:32:25.482Z,132.25
2022-12-03T17:33:47.789Z,131.40
2022-12-03T17:35:17.322Z,132.35
2022-12-03T17:36:39.317Z,135.32
2022-12-03T17:39:24.812Z,128.73
2022-12-03T17:40:47.346Z,136.07
2022-12-03T17:42:09.434Z,134.90
2022-12-03T17:44:54.622Z,129.52
2022-12-03T17:46:19.555Z,128.60
2022-12-03T17:47:41.738Z,131.57
2022-12-03T17:49:03.860Z,133.45
2022-12-03T17:50:26.171Z,119.28
2022-12-03T17:51:48.644Z,133.57
2022-12-03T17:53:11.587Z,123.93
2022-12-03T17:54:55.124Z,128.25
2022-12-03T17:56:24.094Z,132.10
2022-12-03T17:58:56.466Z,117.72
2022-12-03T18:00:49.308Z,126.30
2022-12-03T18:02:16.040Z,126.75
2022-12-03T18:03:51.346Z,122.13
2022-12-03T18:05:14.339Z,130.23
2022-12-03T18:06:41.884Z,135.02
2022-12-03T18:08:04.739Z,133.63
2022-12-03T18:09:30.414Z,143.18
2022-12-03T18:10:52.415Z,136.10
2022-12-03T18:12:14.851Z,136.25
2022-12-03T18:13:37.207Z,131.68
2022-12-03T18:14:59.493Z,135.95
2022-12-03T18:16:23.761Z,140.75
2022-12-03T18:17:45.556Z,138.43
2022-12-03T18:19:08.194Z,141.98
2022-12-03T18:20:30.255Z,151.60
2022-12-03T18:21:53.037Z,147.52
2022-12-03T18:23:16.339Z,149.05
2022-12-03T18:24:38.360Z,144.43
2022-12-03T18:26:02.230Z,137.30
2022-12-03T18:27:24.964Z,142.40
2022-12-03T18:28:46.978Z,147.77
2022-12-03T18:30:09.977Z,137.27
2022-12-03T18:31:33.745Z,127.20
2022-12-03T18:32:56.125Z,136.23
2022-12-03T18:34:18.429Z,135.57
2022-12-03T18:35:41.001Z,141.68
2022-12-03T18:37:06.647Z,134.02
2022-12-03T18:38:35.465Z,142.38
2022-12-03T18:40:00.357Z,132.05
2022-12-03T18:41:24.120Z,134.07
2022-12-03T18:42:46.625Z,131.13
2022-12-03T18:44:12.423Z,132.40
2022-12-03T18:45:43.541Z,136.57
2022-12-03T18:47:32.518Z,132.85
2022-12-03T18:48:58.028Z,127.03
2022-12-03T18:50:21.605Z,138.57
2022-12-03T18:53:05.384Z,131.95
2022-12-03T18:54:27.924Z,133.35
2022-12-03T18:55:50.040Z,125.43
2022-12-03T18:57:13.702Z,142.30
2022-12-03T18:58:47.077Z,136.43
2022-12-03T19:00:13.681Z,138.10
2022-12-03T19:01:36.764Z,133.25
2022-12-03T19:03:03.443Z,142.27
2022-12-03T19:04:28.907Z,138.73